sensor_id;sensor_type;location;lat;lon;timestamp;P1;durP1;ratioP1;P2;durP2;ratioP2
21822;SDS011;11074;48.596;9.238;2023-07-24T00:02:24;10.45;;;6.63;;
21822;SDS011;11074;48.596;9.238;2023-07-24T00:04:50;10.20;;;6.95;;
21822;SDS011;11074;48.596;9.238;2023-07-24T00:07:16;10.50;;;6.80;;
21822;SDS011;11074;48.596;9.238;2023-07-24T00:09:41;13.05;;;7.43;;
21822;SDS011;11074;48.596;9.238;2023-07-24T00:12:07;10.07;;;6.75;;
21822;SDS011;11074;48.596;9.238;2023-07-24T00:14:33;10.93;;;6.63;;
21822;SDS011;11074;48.596;9.238;2023-07-24T00:16:59;9.98;;;6.60;;
21822;SDS011;11074;48.596;9.238;2023-07-24T00:19:24;11.23;;;6.70;;
21822;SDS011;11074;48.596;9.238;2023-07-24T00:21:50;11.13;;;6.93;;
21822;SDS011;11074;48.596;9.238;2023-07-24T00:24:15;10.10;;;6.60;;
21822;SDS011;11074;48.596;9.238;2023-07-24T00:26:41;12.35;;;7.13;;
21822;SDS011;11074;48.596;9.238;2023-07-24T00:29:06;12.25;;;6.70;;
21822;SDS011;11074;48.596;9.238;2023-07-24T00:31:32;10.48;;;7.00;;
21822;SDS011;11074;48.596;9.238;2023-07-24T00:33:58;10.95;;;6.60;;
21822;SDS011;11074;48.596;9.238;2023-07-24T00:36:25;13.68;;;6.45;;
21822;SDS011;11074;48.596;9.238;2023-07-24T00:38:51;12.02;;;7.03;;
21822;SDS011;11074;48.596;9.238;2023-07-24T00:41:17;11.70;;;6.90;;
21822;SDS011;11074;48.596;9.238;2023-07-24T00:43:42;12.65;;;7.30;;
21822;SDS011;11074;48.596;9.238;2023-07-24T00:46:09;10.52;;;6.68;;
21822;SDS011;11074;48.596;9.238;2023-07-24T00:48:36;10.15;;;6.95;;
21822;SDS011;11074;48.596;9.238;2023-07-24T00:51:04;11.80;;;6.57;;
21822;SDS011;11074;48.596;9.238;2023-07-24T00:53:30;10.68;;;6.55;;
21822;SDS011;11074;48.596;9.238;2023-07-24T00:55:57;10.35;;;7.18;;
21822;SDS011;11074;48.596;9.238;2023-07-24T00:58:22;10.80;;;6.60;;
21822;SDS011;11074;48.596;9.238;2023-07-24T01:00:48;11.70;;;7.07;;
21822;SDS011;11074;48.596;9.238;2023-07-24T01:03:15;9.80;;;6.68;;
21822;SDS011;11074;48.596;9.238;2023-07-24T01:05:41;11.10;;;6.97;;
21822;SDS011;11074;48.596;9.238;2023-07-24T01:08:06;12.07;;;6.78;;
21822;SDS011;11074;48.596;9.238;2023-07-24T01:10:33;11.50;;;6.97;;
21822;SDS011;11074;48.596;9.238;2023-07-24T01:12:59;9.73;;;6.68;;
21822;SDS011;11074;48.596;9.238;2023-07-24T01:15:50;12.18;;;7.35;;
21822;SDS011;11074;48.596;9.238;2023-07-24T01:18:36;8.95;;;6.28;;
21822;SDS011;11074;48.596;9.238;2023-07-24T01:21:03;11.15;;;7.40;;
21822;SDS011;11074;48.596;9.238;2023-07-24T01:23:45;9.88;;;6.47;;
21822;SDS011;11074;48.596;9.238;2023-07-24T01:26:23;10.60;;;6.78;;
21822;SDS011;11074;48.596;9.238;2023-07-24T01:28:49;14.07;;;7.68;;
21822;SDS011;11074;48.596;9.238;2023-07-24T01:31:15;9.93;;;6.32;;
21822;SDS011;11074;48.596;9.238;2023-07-24T01:33:41;10.63;;;6.95;;
21822;SDS011;11074;48.596;9.238;2023-07-24T01:36:08;11.52;;;6.55;;
21822;SDS011;11074;48.596;9.238;2023-07-24T01:38:35;9.73;;;6.95;;
21822;SDS011;11074;48.596;9.238;2023-07-24T01:41:02;9.85;;;6.90;;
21822;SDS011;11074;48.596;9.238;2023-07-24T01:43:29;11.07;;;6.63;;
21822;SDS011;11074;48.596;9.238;2023-07-24T01:45:57;10.32;;;6.72;;
21822;SDS011;11074;48.596;9.238;2023-07-24T01:48:23;10.65;;;7.32;;
21822;SDS011;11074;48.596;9.238;2023-07-24T01:50:49;10.35;;;6.47;;
21822;SDS011;11074;48.596;9.238;2023-07-24T01:53:15;10.73;;;6.85;;
21822;SDS011;11074;48.596;9.238;2023-07-24T01:55:41;12.13;;;7.20;;
21822;SDS011;11074;48.596;9.238;2023-07-24T01:58:07;10.63;;;6.50;;
21822;SDS011;11074;48.596;9.238;2023-07-24T02:00:33;12.07;;;7.07;;
21822;SDS011;11074;48.596;9.238;2023-07-24T02:02:59;10.63;;;6.45;;
21822;SDS011;11074;48.596;9.238;2023-07-24T02:05:25;10.48;;;6.70;;
21822;SDS011;11074;48.596;9.238;2023-07-24T02:07:51;10.43;;;6.60;;
21822;SDS011;11074;48.596;9.238;2023-07-24T02:10:16;11.57;;;6.97;;
21822;SDS011;11074;48.596;9.238;2023-07-24T02:12:42;9.90;;;6.40;;
21822;SDS011;11074;48.596;9.238;2023-07-24T02:15:08;11.02;;;6.70;;
21822;SDS011;11074;48.596;9.238;2023-07-24T02:17:34;9.73;;;6.75;;
21822;SDS011;11074;48.596;9.238;2023-07-24T02:20:00;10.75;;;6.93;;
21822;SDS011;11074;48.596;9.238;2023-07-24T02:22:26;11.80;;;6.80;;
21822;SDS011;11074;48.596;9.238;2023-07-24T02:24:54;10.75;;;7.32;;
21822;SDS011;11074;48.596;9.238;2023-07-24T02:27:27;12.05;;;7.03;;
21822;SDS011;11074;48.596;9.238;2023-07-24T02:29:56;11.07;;;6.75;;
21822;SDS011;11074;48.596;9.238;2023-07-24T02:32:22;10.43;;;6.88;;
21822;SDS011;11074;48.596;9.238;2023-07-24T02:34:49;13.98;;;7.70;;
21822;SDS011;11074;48.596;9.238;2023-07-24T02:37:15;10.82;;;7.07;;
21822;SDS011;11074;48.596;9.238;2023-07-24T02:39:41;12.63;;;7.70;;
21822;SDS011;11074;48.596;9.238;2023-07-24T02:42:06;10.80;;;7.00;;
21822;SDS011;11074;48.596;9.238;2023-07-24T02:44:33;11.48;;;6.80;;
21822;SDS011;11074;48.596;9.238;2023-07-24T02:46:59;11.48;;;7.22;;
21822;SDS011;11074;48.596;9.238;2023-07-24T02:49:25;11.38;;;6.32;;
21822;SDS011;11074;48.596;9.238;2023-07-24T02:51:51;11.15;;;6.88;;
21822;SDS011;11074;48.596;9.238;2023-07-24T02:54:17;9.57;;;6.40;;
21822;SDS011;11074;48.596;9.238;2023-07-24T02:56:42;11.68;;;7.03;;
21822;SDS011;11074;48.596;9.238;2023-07-24T02:59:08;11.55;;;6.93;;
21822;SDS011;11074;48.596;9.238;2023-07-24T03:01:33;10.98;;;6.72;;
21822;SDS011;11074;48.596;9.238;2023-07-24T03:03:59;12.30;;;7.43;;
21822;SDS011;11074;48.596;9.238;2023-07-24T03:06:25;13.10;;;6.63;;
21822;SDS011;11074;48.596;9.238;2023-07-24T03:08:51;11.50;;;7.10;;
21822;SDS011;11074;48.596;9.238;2023-07-24T03:11:17;9.88;;;6.82;;
21822;SDS011;11074;48.596;9.238;2023-07-24T03:13:42;9.85;;;6.68;;
21822;SDS011;11074;48.596;9.238;2023-07-24T03:16:08;11.32;;;6.25;;
21822;SDS011;11074;48.596;9.238;2023-07-24T03:18:34;11.88;;;7.00;;
21822;SDS011;11074;48.596;9.238;2023-07-24T03:20:59;10.73;;;6.95;;
21822;SDS011;11074;48.596;9.238;2023-07-24T03:23:25;11.20;;;7.15;;
21822;SDS011;11074;48.596;9.238;2023-07-24T03:25:51;12.45;;;6.75;;
21822;SDS011;11074;48.596;9.238;2023-07-24T03:28:17;8.98;;;6.13;;
21822;SDS011;11074;48.596;9.238;2023-07-24T03:30:42;9.77;;;6.78;;
21822;SDS011;11074;48.596;9.238;2023-07-24T03:33:08;11.07;;;6.72;;
21822;SDS011;11074;48.596;9.238;2023-07-24T03:35:34;11.10;;;7.20;;
21822;SDS011;11074;48.596;9.238;2023-07-24T03:37:59;10.27;;;6.13;;
21822;SDS011;11074;48.596;9.238;2023-07-24T03:40:25;10.98;;;6.78;;
21822;SDS011;11074;48.596;9.238;2023-07-24T03:42:51;11.45;;;6.50;;
21822;SDS011;11074;48.596;9.238;2023-07-24T03:45:17;11.35;;;6.72;;
21822;SDS011;11074;48.596;9.238;2023-07-24T03:47:42;10.88;;;7.10;;
21822;SDS011;11074;48.596;9.238;2023-07-24T03:50:08;11.40;;;7.10;;
21822;SDS011;11074;48.596;9.238;2023-07-24T03:52:34;11.63;;;6.38;;
21822;SDS011;11074;48.596;9.238;2023-07-24T03:55:00;14.25;;;6.82;;
21822;SDS011;11074;48.596;9.238;2023-07-24T03:57:26;12.85;;;7.00;;
21822;SDS011;11074;48.596;9.238;2023-07-24T03:59:52;9.82;;;6.45;;
21822;SDS011;11074;48.596;9.238;2023-07-24T04:02:17;10.98;;;6.95;;
21822;SDS011;11074;48.596;9.238;2023-07-24T04:04:43;10.82;;;6.93;;
21822;SDS011;11074;48.596;9.238;2023-07-24T04:07:09;9.65;;;6.50;;
21822;SDS011;11074;48.596;9.238;2023-07-24T04:09:35;15.02;;;6.72;;
21822;SDS011;11074;48.596;9.238;2023-07-24T04:12:00;9.45;;;6.20;;
21822;SDS011;11074;48.596;9.238;2023-07-24T04:14:26;11.23;;;6.90;;
21822;SDS011;11074;48.596;9.238;2023-07-24T04:16:52;10.65;;;6.72;;
21822;SDS011;11074;48.596;9.238;2023-07-24T04:19:18;10.05;;;6.63;;
21822;SDS011;11074;48.596;9.238;2023-07-24T04:21:44;9.77;;;6.22;;
21822;SDS011;11074;48.596;9.238;2023-07-24T04:24:09;11.85;;;6.60;;
21822;SDS011;11074;48.596;9.238;2023-07-24T04:26:35;13.13;;;6.93;;
21822;SDS011;11074;48.596;9.238;2023-07-24T04:29:01;10.55;;;6.40;;
21822;SDS011;11074;48.596;9.238;2023-07-24T04:31:26;9.48;;;6.40;;
21822;SDS011;11074;48.596;9.238;2023-07-24T04:33:52;12.15;;;7.03;;
21822;SDS011;11074;48.596;9.238;2023-07-24T04:36:18;11.13;;;7.25;;
21822;SDS011;11074;48.596;9.238;2023-07-24T04:38:43;11.55;;;7.32;;
21822;SDS011;11074;48.596;9.238;2023-07-24T04:41:11;11.70;;;7.07;;
21822;SDS011;11074;48.596;9.238;2023-07-24T04:43:37;10.63;;;7.43;;
21822;SDS011;11074;48.596;9.238;2023-07-24T04:46:02;11.23;;;7.18;;
21822;SDS011;11074;48.596;9.238;2023-07-24T04:48:28;11.73;;;7.00;;
21822;SDS011;11074;48.596;9.238;2023-07-24T04:50:54;9.30;;;6.57;;
21822;SDS011;11074;48.596;9.238;2023-07-24T04:53:21;10.43;;;6.50;;
21822;SDS011;11074;48.596;9.238;2023-07-24T04:55:50;11.23;;;7.00;;
21822;SDS011;11074;48.596;9.238;2023-07-24T04:58:15;12.13;;;6.85;;
21822;SDS011;11074;48.596;9.238;2023-07-24T05:00:42;12.40;;;7.15;;
21822;SDS011;11074;48.596;9.238;2023-07-24T05:03:08;10.27;;;7.05;;
21822;SDS011;11074;48.596;9.238;2023-07-24T05:05:38;12.40;;;7.15;;
21822;SDS011;11074;48.596;9.238;2023-07-24T05:08:04;12.32;;;7.22;;
21822;SDS011;11074;48.596;9.238;2023-07-24T05:10:34;10.70;;;6.60;;
21822;SDS011;11074;48.596;9.238;2023-07-24T05:13:02;10.60;;;6.68;;
21822;SDS011;11074;48.596;9.238;2023-07-24T05:15:28;9.20;;;6.43;;
21822;SDS011;11074;48.596;9.238;2023-07-24T05:17:54;11.70;;;7.20;;
21822;SDS011;11074;48.596;9.238;2023-07-24T05:20:20;12.48;;;7.15;;
21822;SDS011;11074;48.596;9.238;2023-07-24T05:22:45;11.77;;;7.13;;
21822;SDS011;11074;48.596;9.238;2023-07-24T05:25:11;10.45;;;6.55;;
21822;SDS011;11074;48.596;9.238;2023-07-24T05:27:37;11.65;;;6.85;;
21822;SDS011;11074;48.596;9.238;2023-07-24T05:30:03;11.02;;;6.72;;
21822;SDS011;11074;48.596;9.238;2023-07-24T05:32:30;9.68;;;6.82;;
21822;SDS011;11074;48.596;9.238;2023-07-24T05:34:55;12.82;;;7.05;;
21822;SDS011;11074;48.596;9.238;2023-07-24T05:37:21;10.40;;;7.03;;
21822;SDS011;11074;48.596;9.238;2023-07-24T05:39:46;10.90;;;6.97;;
21822;SDS011;11074;48.596;9.238;2023-07-24T05:42:12;10.40;;;7.03;;
21822;SDS011;11074;48.596;9.238;2023-07-24T05:44:38;10.70;;;7.20;;
21822;SDS011;11074;48.596;9.238;2023-07-24T05:47:03;11.95;;;7.22;;
21822;SDS011;11074;48.596;9.238;2023-07-24T05:49:29;10.35;;;6.68;;
21822;SDS011;11074;48.596;9.238;2023-07-24T05:51:55;11.23;;;7.18;;
21822;SDS011;11074;48.596;9.238;2023-07-24T05:54:22;11.32;;;7.15;;
21822;SDS011;11074;48.596;9.238;2023-07-24T05:56:48;10.40;;;6.80;;
21822;SDS011;11074;48.596;9.238;2023-07-24T05:59:13;11.40;;;7.25;;
21822;SDS011;11074;48.596;9.238;2023-07-24T06:01:39;11.30;;;7.00;;
21822;SDS011;11074;48.596;9.238;2023-07-24T06:04:05;12.13;;;7.40;;
21822;SDS011;11074;48.596;9.238;2023-07-24T06:06:32;10.77;;;7.03;;
21822;SDS011;11074;48.596;9.238;2023-07-24T06:08:58;10.68;;;6.90;;
21822;SDS011;11074;48.596;9.238;2023-07-24T06:11:24;12.00;;;7.13;;
21822;SDS011;11074;48.596;9.238;2023-07-24T06:13:51;11.98;;;7.30;;
21822;SDS011;11074;48.596;9.238;2023-07-24T06:16:17;10.48;;;7.22;;
21822;SDS011;11074;48.596;9.238;2023-07-24T06:18:43;11.73;;;7.07;;
21822;SDS011;11074;48.596;9.238;2023-07-24T06:21:09;12.82;;;7.18;;
21822;SDS011;11074;48.596;9.238;2023-07-24T06:23:35;12.60;;;7.82;;
21822;SDS011;11074;48.596;9.238;2023-07-24T06:26:00;11.95;;;6.97;;
21822;SDS011;11074;48.596;9.238;2023-07-24T06:28:26;10.93;;;7.25;;
21822;SDS011;11074;48.596;9.238;2023-07-24T06:30:53;12.30;;;6.72;;
21822;SDS011;11074;48.596;9.238;2023-07-24T06:33:20;10.90;;;7.07;;
21822;SDS011;11074;48.596;9.238;2023-07-24T06:35:49;11.38;;;6.90;;
21822;SDS011;11074;48.596;9.238;2023-07-24T06:38:15;16.50;;;7.57;;
21822;SDS011;11074;48.596;9.238;2023-07-24T06:40:41;13.63;;;7.72;;
21822;SDS011;11074;48.596;9.238;2023-07-24T06:43:07;11.00;;;7.30;;
21822;SDS011;11074;48.596;9.238;2023-07-24T06:45:33;12.05;;;7.95;;
21822;SDS011;11074;48.596;9.238;2023-07-24T06:47:59;12.75;;;8.18;;
21822;SDS011;11074;48.596;9.238;2023-07-24T06:50:27;12.18;;;7.03;;
21822;SDS011;11074;48.596;9.238;2023-07-24T06:52:53;13.27;;;7.00;;
21822;SDS011;11074;48.596;9.238;2023-07-24T06:55:19;12.68;;;7.53;;
21822;SDS011;11074;48.596;9.238;2023-07-24T06:57:47;12.05;;;7.50;;
21822;SDS011;11074;48.596;9.238;2023-07-24T07:00:13;11.82;;;7.88;;
21822;SDS011;11074;48.596;9.238;2023-07-24T07:02:39;12.90;;;7.88;;
21822;SDS011;11074;48.596;9.238;2023-07-24T07:05:05;10.35;;;7.15;;
21822;SDS011;11074;48.596;9.238;2023-07-24T07:07:31;13.52;;;7.32;;
21822;SDS011;11074;48.596;9.238;2023-07-24T07:09:57;11.77;;;7.20;;
21822;SDS011;11074;48.596;9.238;2023-07-24T07:12:22;12.80;;;7.50;;
21822;SDS011;11074;48.596;9.238;2023-07-24T07:14:48;12.63;;;7.88;;
21822;SDS011;11074;48.596;9.238;2023-07-24T07:17:14;14.25;;;7.30;;
21822;SDS011;11074;48.596;9.238;2023-07-24T07:19:39;12.38;;;7.53;;
21822;SDS011;11074;48.596;9.238;2023-07-24T07:22:05;12.77;;;7.80;;
21822;SDS011;11074;48.596;9.238;2023-07-24T07:24:31;11.43;;;7.70;;
21822;SDS011;11074;48.596;9.238;2023-07-24T07:26:57;11.60;;;7.57;;
21822;SDS011;11074;48.596;9.238;2023-07-24T07:29:22;12.30;;;7.70;;
21822;SDS011;11074;48.596;9.238;2023-07-24T07:31:48;12.70;;;7.63;;
21822;SDS011;11074;48.596;9.238;2023-07-24T07:34:14;14.70;;;8.07;;
21822;SDS011;11074;48.596;9.238;2023-07-24T07:36:39;11.93;;;7.65;;
21822;SDS011;11074;48.596;9.238;2023-07-24T07:39:05;14.38;;;7.70;;
21822;SDS011;11074;48.596;9.238;2023-07-24T07:41:30;16.05;;;8.43;;
21822;SDS011;11074;48.596;9.238;2023-07-24T07:43:57;12.50;;;7.60;;
21822;SDS011;11074;48.596;9.238;2023-07-24T07:46:22;12.07;;;8.00;;
21822;SDS011;11074;48.596;9.238;2023-07-24T07:48:48;12.88;;;7.97;;
21822;SDS011;11074;48.596;9.238;2023-07-24T07:51:14;13.88;;;8.00;;
21822;SDS011;11074;48.596;9.238;2023-07-24T07:53:40;10.80;;;6.88;;
21822;SDS011;11074;48.596;9.238;2023-07-24T07:56:05;12.55;;;7.85;;
21822;SDS011;11074;48.596;9.238;2023-07-24T07:58:32;13.05;;;7.60;;
21822;SDS011;11074;48.596;9.238;2023-07-24T08:00:57;12.20;;;8.13;;
21822;SDS011;11074;48.596;9.238;2023-07-24T08:03:23;10.88;;;7.38;;
21822;SDS011;11074;48.596;9.238;2023-07-24T08:05:48;11.10;;;7.53;;
21822;SDS011;11074;48.596;9.238;2023-07-24T08:08:14;11.48;;;7.45;;
21822;SDS011;11074;48.596;9.238;2023-07-24T08:10:40;11.95;;;7.63;;
21822;SDS011;11074;48.596;9.238;2023-07-24T08:13:05;11.57;;;7.28;;
21822;SDS011;11074;48.596;9.238;2023-07-24T08:15:35;11.25;;;7.80;;
21822;SDS011;11074;48.596;9.238;2023-07-24T08:18:05;11.68;;;7.55;;
21822;SDS011;11074;48.596;9.238;2023-07-24T08:20:35;13.43;;;7.57;;
21822;SDS011;11074;48.596;9.238;2023-07-24T08:23:02;11.07;;;6.70;;
21822;SDS011;11074;48.596;9.238;2023-07-24T08:25:28;12.10;;;7.95;;
21822;SDS011;11074;48.596;9.238;2023-07-24T08:27:54;11.70;;;7.53;;
21822;SDS011;11074;48.596;9.238;2023-07-24T08:30:19;9.75;;;6.60;;
21822;SDS011;11074;48.596;9.238;2023-07-24T08:32:45;10.30;;;6.15;;
21822;SDS011;11074;48.596;9.238;2023-07-24T08:35:11;10.30;;;6.47;;
21822;SDS011;11074;48.596;9.238;2023-07-24T08:37:37;10.85;;;6.32;;
21822;SDS011;11074;48.596;9.238;2023-07-24T08:40:02;10.00;;;6.38;;
21822;SDS011;11074;48.596;9.238;2023-07-24T08:42:28;10.93;;;6.50;;
21822;SDS011;11074;48.596;9.238;2023-07-24T08:44:56;11.38;;;6.35;;
21822;SDS011;11074;48.596;9.238;2023-07-24T08:47:24;10.68;;;6.57;;
21822;SDS011;11074;48.596;9.238;2023-07-24T08:49:50;11.90;;;6.72;;
21822;SDS011;11074;48.596;9.238;2023-07-24T08:52:18;10.65;;;7.10;;
21822;SDS011;11074;48.596;9.238;2023-07-24T08:54:44;11.27;;;6.60;;
21822;SDS011;11074;48.596;9.238;2023-07-24T08:57:12;8.95;;;5.95;;
21822;SDS011;11074;48.596;9.238;2023-07-24T08:59:39;9.93;;;6.90;;
21822;SDS011;11074;48.596;9.238;2023-07-24T09:02:04;9.20;;;6.38;;
21822;SDS011;11074;48.596;9.238;2023-07-24T09:04:30;11.93;;;7.18;;
21822;SDS011;11074;48.596;9.238;2023-07-24T09:06:57;10.32;;;6.45;;
21822;SDS011;11074;48.596;9.238;2023-07-24T09:09:28;11.10;;;5.97;;
21822;SDS011;11074;48.596;9.238;2023-07-24T09:11:56;9.20;;;5.63;;
21822;SDS011;11074;48.596;9.238;2023-07-24T09:14:24;7.55;;;5.60;;
21822;SDS011;11074;48.596;9.238;2023-07-24T09:19:36;12.38;;;6.07;;
21822;SDS011;11074;48.596;9.238;2023-07-24T09:22:13;10.10;;;6.05;;
21822;SDS011;11074;48.596;9.238;2023-07-24T09:24:54;9.05;;;5.38;;
21822;SDS011;11074;48.596;9.238;2023-07-24T09:27:26;8.60;;;5.43;;
21822;SDS011;11074;48.596;9.238;2023-07-24T09:29:54;9.57;;;5.68;;
21822;SDS011;11074;48.596;9.238;2023-07-24T09:32:21;8.70;;;5.72;;
21822;SDS011;11074;48.596;9.238;2023-07-24T09:34:49;9.32;;;5.80;;
21822;SDS011;11074;48.596;9.238;2023-07-24T09:37:26;9.90;;;5.63;;
21822;SDS011;11074;48.596;9.238;2023-07-24T09:39:56;9.02;;;5.93;;
21822;SDS011;11074;48.596;9.238;2023-07-24T09:42:31;9.65;;;5.55;;
21822;SDS011;11074;48.596;9.238;2023-07-24T09:45:03;8.43;;;5.80;;
21822;SDS011;11074;48.596;9.238;2023-07-24T09:47:30;9.70;;;6.10;;
21822;SDS011;11074;48.596;9.238;2023-07-24T09:49:56;8.98;;;5.80;;
21822;SDS011;11074;48.596;9.238;2023-07-24T09:52:24;10.40;;;6.55;;
21822;SDS011;11074;48.596;9.238;2023-07-24T09:57:34;9.98;;;6.03;;
21822;SDS011;11074;48.596;9.238;2023-07-24T10:00:01;10.10;;;6.28;;
21822;SDS011;11074;48.596;9.238;2023-07-24T10:02:27;10.05;;;5.50;;
21822;SDS011;11074;48.596;9.238;2023-07-24T10:04:53;11.43;;;6.38;;
21822;SDS011;11074;48.596;9.238;2023-07-24T10:07:21;10.05;;;6.05;;
21822;SDS011;11074;48.596;9.238;2023-07-24T10:09:49;9.27;;;5.63;;
21822;SDS011;11074;48.596;9.238;2023-07-24T10:12:16;11.40;;;6.03;;
21822;SDS011;11074;48.596;9.238;2023-07-24T10:14:46;11.02;;;6.22;;
21822;SDS011;11074;48.596;9.238;2023-07-24T10:17:13;9.10;;;6.35;;
21822;SDS011;11074;48.596;9.238;2023-07-24T10:19:39;10.63;;;6.47;;
21822;SDS011;11074;48.596;9.238;2023-07-24T10:22:08;11.38;;;6.25;;
21822;SDS011;11074;48.596;9.238;2023-07-24T10:24:46;14.52;;;7.07;;
21822;SDS011;11074;48.596;9.238;2023-07-24T10:27:12;31.33;;;11.70;;
21822;SDS011;11074;48.596;9.238;2023-07-24T10:29:38;14.88;;;7.88;;
21822;SDS011;11074;48.596;9.238;2023-07-24T10:32:05;12.75;;;7.57;;
21822;SDS011;11074;48.596;9.238;2023-07-24T10:34:43;10.75;;;6.80;;
21822;SDS011;11074;48.596;9.238;2023-07-24T10:37:09;11.45;;;5.90;;
21822;SDS011;11074;48.596;9.238;2023-07-24T10:39:38;10.77;;;6.10;;
21822;SDS011;11074;48.596;9.238;2023-07-24T10:42:09;9.52;;;6.00;;
21822;SDS011;11074;48.596;9.238;2023-07-24T10:44:36;11.35;;;5.82;;
21822;SDS011;11074;48.596;9.238;2023-07-24T10:47:02;8.57;;;5.88;;
21822;SDS011;11074;48.596;9.238;2023-07-24T10:49:28;9.90;;;5.90;;
21822;SDS011;11074;48.596;9.238;2023-07-24T10:51:58;10.88;;;5.90;;
21822;SDS011;11074;48.596;9.238;2023-07-24T10:54:24;10.00;;;5.82;;
21822;SDS011;11074;48.596;9.238;2023-07-24T10:56:56;9.73;;;6.00;;
21822;SDS011;11074;48.596;9.238;2023-07-24T10:59:35;6.88;;;5.00;;
21822;SDS011;11074;48.596;9.238;2023-07-24T11:02:02;9.77;;;5.53;;
21822;SDS011;11074;48.596;9.238;2023-07-24T11:04:29;7.97;;;5.43;;
21822;SDS011;11074;48.596;9.238;2023-07-24T11:06:55;7.80;;;5.20;;
21822;SDS011;11074;48.596;9.238;2023-07-24T11:09:22;8.73;;;5.53;;
21822;SDS011;11074;48.596;9.238;2023-07-24T11:11:59;9.82;;;5.85;;
21822;SDS011;11074;48.596;9.238;2023-07-24T11:14:24;11.30;;;6.00;;
21822;SDS011;11074;48.596;9.238;2023-07-24T11:16:50;9.90;;;5.93;;
21822;SDS011;11074;48.596;9.238;2023-07-24T11:19:25;8.25;;;6.13;;
21822;SDS011;11074;48.596;9.238;2023-07-24T11:21:51;10.15;;;5.55;;
21822;SDS011;11074;48.596;9.238;2023-07-24T11:24:17;9.52;;;5.32;;
21822;SDS011;11074;48.596;9.238;2023-07-24T11:26:43;8.82;;;5.82;;
21822;SDS011;11074;48.596;9.238;2023-07-24T11:29:12;9.18;;;5.95;;
21822;SDS011;11074;48.596;9.238;2023-07-24T11:31:38;11.20;;;6.72;;
21822;SDS011;11074;48.596;9.238;2023-07-24T11:34:04;11.50;;;6.55;;
21822;SDS011;11074;48.596;9.238;2023-07-24T11:36:31;9.68;;;5.63;;
21822;SDS011;11074;48.596;9.238;2023-07-24T11:38:57;9.25;;;5.70;;
21822;SDS011;11074;48.596;9.238;2023-07-24T11:41:26;9.13;;;5.63;;
21822;SDS011;11074;48.596;9.238;2023-07-24T11:43:52;7.70;;;5.20;;
21822;SDS011;11074;48.596;9.238;2023-07-24T11:46:24;9.63;;;6.38;;
21822;SDS011;11074;48.596;9.238;2023-07-24T11:48:51;10.13;;;5.88;;
21822;SDS011;11074;48.596;9.238;2023-07-24T11:51:20;9.20;;;5.88;;
21822;SDS011;11074;48.596;9.238;2023-07-24T11:53:46;8.55;;;6.03;;
21822;SDS011;11074;48.596;9.238;2023-07-24T11:56:13;10.18;;;5.63;;
21822;SDS011;11074;48.596;9.238;2023-07-24T11:58:40;8.25;;;5.72;;
21822;SDS011;11074;48.596;9.238;2023-07-24T12:01:06;9.35;;;5.18;;
21822;SDS011;11074;48.596;9.238;2023-07-24T12:03:31;9.23;;;6.00;;
21822;SDS011;11074;48.596;9.238;2023-07-24T12:05:57;8.55;;;5.75;;
21822;SDS011;11074;48.596;9.238;2023-07-24T12:08:30;7.97;;;6.07;;
21822;SDS011;11074;48.596;9.238;2023-07-24T12:10:59;8.10;;;5.72;;
21822;SDS011;11074;48.596;9.238;2023-07-24T12:13:25;9.38;;;5.07;;
21822;SDS011;11074;48.596;9.238;2023-07-24T12:15:51;8.40;;;5.57;;
21822;SDS011;11074;48.596;9.238;2023-07-24T12:18:17;9.98;;;5.60;;
21822;SDS011;11074;48.596;9.238;2023-07-24T12:20:42;7.82;;;4.75;;
21822;SDS011;11074;48.596;9.238;2023-07-24T12:23:08;7.22;;;4.68;;
21822;SDS011;11074;48.596;9.238;2023-07-24T12:25:34;7.43;;;4.78;;
21822;SDS011;11074;48.596;9.238;2023-07-24T12:27:59;7.10;;;4.82;;
21822;SDS011;11074;48.596;9.238;2023-07-24T12:30:25;8.48;;;4.70;;
21822;SDS011;11074;48.596;9.238;2023-07-24T12:32:51;7.53;;;4.45;;
21822;SDS011;11074;48.596;9.238;2023-07-24T12:35:16;6.30;;;4.88;;
21822;SDS011;11074;48.596;9.238;2023-07-24T12:37:42;7.88;;;4.82;;
21822;SDS011;11074;48.596;9.238;2023-07-24T12:40:10;7.40;;;4.43;;
21822;SDS011;11074;48.596;9.238;2023-07-24T12:42:36;6.97;;;4.95;;
21822;SDS011;11074;48.596;9.238;2023-07-24T12:45:02;6.38;;;4.63;;
21822;SDS011;11074;48.596;9.238;2023-07-24T12:47:29;7.45;;;4.50;;
21822;SDS011;11074;48.596;9.238;2023-07-24T12:49:56;7.65;;;4.47;;
21822;SDS011;11074;48.596;9.238;2023-07-24T12:52:23;6.78;;;4.40;;
21822;SDS011;11074;48.596;9.238;2023-07-24T12:54:49;7.47;;;4.57;;
21822;SDS011;11074;48.596;9.238;2023-07-24T12:57:15;6.85;;;4.03;;
21822;SDS011;11074;48.596;9.238;2023-07-24T12:59:41;7.13;;;4.22;;
21822;SDS011;11074;48.596;9.238;2023-07-24T13:02:07;5.72;;;3.90;;
21822;SDS011;11074;48.596;9.238;2023-07-24T13:04:32;6.35;;;4.57;;
21822;SDS011;11074;48.596;9.238;2023-07-24T13:06:58;5.85;;;4.07;;
21822;SDS011;11074;48.596;9.238;2023-07-24T13:09:27;6.35;;;4.45;;
21822;SDS011;11074;48.596;9.238;2023-07-24T13:11:52;7.90;;;4.40;;
21822;SDS011;11074;48.596;9.238;2023-07-24T13:14:19;6.55;;;4.40;;
21822;SDS011;11074;48.596;9.238;2023-07-24T13:16:46;6.85;;;4.30;;
21822;SDS011;11074;48.596;9.238;2023-07-24T13:19:12;6.38;;;4.38;;
21822;SDS011;11074;48.596;9.238;2023-07-24T13:21:37;6.28;;;4.32;;
21822;SDS011;11074;48.596;9.238;2023-07-24T13:24:05;7.28;;;4.35;;
21822;SDS011;11074;48.596;9.238;2023-07-24T13:26:31;6.30;;;4.22;;
21822;SDS011;11074;48.596;9.238;2023-07-24T13:28:58;6.32;;;4.50;;
21822;SDS011;11074;48.596;9.238;2023-07-24T13:31:23;5.20;;;3.95;;
21822;SDS011;11074;48.596;9.238;2023-07-24T13:33:49;5.32;;;3.65;;
21822;SDS011;11074;48.596;9.238;2023-07-24T13:36:15;4.88;;;3.70;;
21822;SDS011;11074;48.596;9.238;2023-07-24T13:38:41;5.90;;;3.70;;
21822;SDS011;11074;48.596;9.238;2023-07-24T13:41:07;5.65;;;4.07;;
21822;SDS011;11074;48.596;9.238;2023-07-24T13:43:33;5.97;;;3.80;;
21822;SDS011;11074;48.596;9.238;2023-07-24T13:45:59;6.03;;;3.58;;
21822;SDS011;11074;48.596;9.238;2023-07-24T13:48:27;5.68;;;3.55;;
21822;SDS011;11074;48.596;9.238;2023-07-24T13:50:54;4.85;;;3.40;;
21822;SDS011;11074;48.596;9.238;2023-07-24T13:53:20;4.47;;;3.10;;
21822;SDS011;11074;48.596;9.238;2023-07-24T13:55:46;7.32;;;3.33;;
21822;SDS011;11074;48.596;9.238;2023-07-24T13:58:13;4.35;;;2.78;;
21822;SDS011;11074;48.596;9.238;2023-07-24T14:00:38;4.75;;;3.30;;
21822;SDS011;11074;48.596;9.238;2023-07-24T14:03:04;4.63;;;3.25;;
21822;SDS011;11074;48.596;9.238;2023-07-24T14:05:30;4.65;;;3.30;;
21822;SDS011;11074;48.596;9.238;2023-07-24T14:07:56;5.78;;;3.30;;
21822;SDS011;11074;48.596;9.238;2023-07-24T14:10:21;5.20;;;3.60;;
21822;SDS011;11074;48.596;9.238;2023-07-24T14:12:47;5.20;;;3.10;;
21822;SDS011;11074;48.596;9.238;2023-07-24T14:15:13;4.30;;;3.08;;
21822;SDS011;11074;48.596;9.238;2023-07-24T14:17:38;5.53;;;3.35;;
21822;SDS011;11074;48.596;9.238;2023-07-24T14:20:05;5.75;;;3.20;;
21822;SDS011;11074;48.596;9.238;2023-07-24T14:22:32;5.10;;;3.45;;
21822;SDS011;11074;48.596;9.238;2023-07-24T14:24:57;5.25;;;3.17;;
21822;SDS011;11074;48.596;9.238;2023-07-24T14:27:23;6.15;;;2.90;;
21822;SDS011;11074;48.596;9.238;2023-07-24T14:29:49;5.57;;;3.25;;
21822;SDS011;11074;48.596;9.238;2023-07-24T14:32:14;4.85;;;3.10;;
21822;SDS011;11074;48.596;9.238;2023-07-24T14:34:40;3.65;;;2.50;;
21822;SDS011;11074;48.596;9.238;2023-07-24T14:37:07;5.45;;;3.05;;
21822;SDS011;11074;48.596;9.238;2023-07-24T14:39:33;4.80;;;2.92;;
21822;SDS011;11074;48.596;9.238;2023-07-24T14:41:59;4.30;;;2.67;;